createdAt,value
2023-03-26T00:02:41.918Z,1.80
2023-03-26T00:05:32.145Z,1.90
2023-03-26T00:08:22.397Z,1.60
2023-03-26T00:11:15.517Z,2.03
2023-03-26T00:14:05.640Z,1.37
2023-03-26T00:16:54.715Z,1.80
2023-03-26T00:19:43.997Z,1.70
2023-03-26T00:22:32.970Z,1.67
2023-03-26T00:25:23.980Z,1.43
2023-03-26T00:28:13.443Z,1.10
2023-03-26T00:31:06.662Z,1.50
2023-03-26T00:33:56.812Z,1.10
2023-03-26T00:36:47.126Z,1.83
2023-03-26T00:39:37.407Z,1.47
2023-03-26T00:42:27.902Z,1.10
2023-03-26T00:45:17.207Z,1.40
2023-03-26T00:48:06.733Z,1.40
2023-03-26T00:50:55.523Z,1.07
2023-03-26T00:53:47.403Z,1.20
2023-03-26T00:56:37.015Z,1.23
2023-03-26T00:59:30.450Z,1.60
2023-03-26T01:02:22.057Z,1.33
2023-03-26T01:05:46.644Z,1.40
2023-03-26T01:08:39.633Z,1.00
2023-03-26T01:11:32.855Z,1.37
2023-03-26T01:14:28.954Z,1.57
2023-03-26T01:17:19.668Z,1.50
2023-03-26T01:20:17.168Z,1.37
2023-03-26T01:23:08.442Z,1.10
2023-03-26T01:26:21.249Z,1.30
2023-03-26T01:29:21.761Z,1.17
2023-03-26T01:32:25.738Z,1.50
2023-03-26T01:35:32.155Z,1.33
2023-03-26T01:38:35.494Z,1.20
2023-03-26T01:41:36.010Z,0.90
2023-03-26T01:44:35.464Z,1.60
2023-03-26T01:47:25.012Z,1.43
2023-03-26T01:50:14.484Z,1.50
2023-03-26T01:53:05.625Z,1.00
2023-03-26T01:56:12.803Z,1.40
2023-03-26T01:59:25.150Z,1.37
2023-03-26T02:02:18.200Z,1.60
2023-03-26T02:05:18.487Z,1.20
2023-03-26T02:08:20.492Z,1.00
2023-03-26T02:11:14.317Z,1.20
2023-03-26T02:14:07.634Z,1.37
2023-03-26T02:16:57.150Z,1.80
2023-03-26T02:19:48.042Z,1.20
2023-03-26T02:22:41.082Z,1.20
2023-03-26T02:25:32.059Z,1.23
2023-03-26T02:28:21.457Z,1.10
2023-03-26T02:31:13.911Z,1.20
2023-03-26T02:34:03.013Z,1.63
2023-03-26T02:36:54.666Z,1.40
2023-03-26T02:39:43.870Z,1.23
2023-03-26T02:42:42.482Z,1.50
2023-03-26T02:45:31.559Z,2.70
2023-03-26T02:48:27.909Z,1.40
2023-03-26T02:51:34.961Z,1.77
2023-03-26T02:54:26.876Z,1.40
2023-03-26T02:57:28.812Z,1.20
2023-03-26T03:00:23.840Z,1.93
2023-03-26T03:03:34.579Z,1.27
2023-03-26T03:06:26.470Z,1.50
2023-03-26T03:09:19.898Z,2.30
2023-03-26T03:12:27.296Z,1.50
2023-03-26T03:15:16.085Z,1.30
2023-03-26T03:18:05.206Z,1.47
2023-03-26T03:20:56.548Z,1.50
2023-03-26T03:23:45.863Z,0.97
2023-03-26T03:26:36.552Z,1.40
2023-03-26T03:29:45.678Z,2.43
2023-03-26T03:33:13.094Z,1.70
2023-03-26T03:36:10.245Z,2.00
2023-03-26T03:39:09.572Z,1.90
2023-03-26T03:41:59.192Z,1.40
2023-03-26T03:44:48.067Z,2.23
2023-03-26T03:47:57.661Z,1.60
2023-03-26T03:50:54.860Z,1.50
2023-03-26T03:53:49.396Z,1.70
2023-03-26T03:56:49.134Z,1.47
2023-03-26T03:59:58.181Z,1.50
2023-03-26T04:02:49.181Z,2.33
2023-03-26T04:05:38.717Z,1.23
2023-03-26T04:08:27.579Z,2.37
2023-03-26T04:11:19.374Z,2.00
2023-03-26T04:14:34.116Z,1.73
2023-03-26T04:17:42.750Z,1.40
2023-03-26T04:20:33.962Z,2.03
2023-03-26T04:23:24.475Z,1.33
2023-03-26T04:26:20.862Z,1.67
2023-03-26T04:29:32.849Z,1.60
2023-03-26T04:32:26.597Z,1.30
2023-03-26T04:35:19.489Z,2.40
2023-03-26T04:38:16.805Z,1.83
2023-03-26T04:41:08.687Z,1.40
2023-03-26T04:44:06.990Z,1.80
2023-03-26T04:46:55.781Z,1.97
2023-03-26T04:49:52.397Z,1.70
2023-03-26T04:52:44.568Z,3.40
2023-03-26T04:56:10.410Z,1.60
2023-03-26T04:59:29.949Z,1.50
2023-03-26T05:02:20.223Z,1.67
2023-03-26T05:05:15.149Z,1.50
2023-03-26T05:08:04.215Z,1.37
2023-03-26T05:10:53.315Z,1.67
2023-03-26T05:13:49.998Z,2.17
2023-03-26T05:16:41.541Z,1.90
2023-03-26T05:19:31.253Z,2.00
2023-03-26T05:22:20.400Z,2.03
2023-03-26T05:25:31.501Z,1.90
2023-03-26T05:28:24.646Z,2.30
2023-03-26T05:31:35.998Z,2.20
2023-03-26T05:34:27.180Z,1.93
2023-03-26T05:37:17.278Z,1.87
2023-03-26T05:40:17.166Z,2.30
2023-03-26T05:43:26.782Z,2.40
2023-03-26T05:46:24.150Z,2.13
2023-03-26T05:49:13.275Z,2.60
2023-03-26T05:52:03.921Z,2.30
2023-03-26T05:55:09.817Z,1.83
2023-03-26T05:58:36.433Z,2.30
2023-03-26T06:01:54.454Z,2.70
2023-03-26T06:04:46.273Z,2.47
2023-03-26T06:07:56.957Z,2.53
2023-03-26T06:10:52.669Z,2.57
2023-03-26T06:13:42.363Z,3.00
2023-03-26T06:16:31.522Z,2.40
2023-03-26T06:19:40.524Z,2.60
2023-03-26T06:22:39.768Z,2.00
2023-03-26T06:25:57.369Z,2.53
2023-03-26T06:29:04.671Z,2.33
2023-03-26T06:32:19.816Z,1.93
2023-03-26T06:35:29.390Z,2.07
2023-03-26T06:38:18.804Z,1.77
2023-03-26T06:41:09.515Z,2.30
2023-03-26T06:44:01.543Z,1.63
2023-03-26T06:47:28.890Z,2.00
2023-03-26T06:50:40.576Z,1.80
2023-03-26T06:53:47.935Z,1.53
2023-03-26T06:56:58.969Z,1.63
2023-03-26T07:00:08.630Z,1.70
2023-03-26T07:03:17.346Z,1.60
2023-03-26T07:06:26.611Z,1.90
2023-03-26T07:09:34.019Z,2.03
2023-03-26T07:12:43.422Z,1.90
2023-03-26T07:15:50.932Z,1.80
2023-03-26T07:18:58.384Z,2.27
2023-03-26T07:21:53.865Z,2.53
2023-03-26T07:25:08.037Z,2.40
2023-03-26T07:28:20.478Z,1.80
2023-03-26T07:31:34.909Z,2.17
2023-03-26T07:34:54.336Z,2.20
2023-03-26T07:38:38.587Z,1.70
2023-03-26T07:42:00.458Z,1.53
2023-03-26T07:45:27.250Z,1.77
2023-03-26T07:48:47.763Z,2.53
2023-03-26T07:51:43.946Z,1.97
2023-03-26T07:54:51.998Z,2.40
2023-03-26T07:58:20.816Z,1.60
2023-03-26T08:02:15.028Z,2.37
2023-03-26T08:05:26.229Z,1.93
2023-03-26T08:08:49.473Z,1.83
2023-03-26T08:12:07.475Z,2.10
2023-03-26T08:15:08.889Z,2.33
2023-03-26T08:18:14.654Z,1.97
2023-03-26T08:21:11.144Z,2.13
2023-03-26T08:24:09.523Z,2.00
2023-03-26T08:27:13.484Z,2.70
2023-03-26T08:30:12.039Z,2.17
2023-03-26T08:33:16.745Z,1.87
2023-03-26T08:36:06.798Z,2.73
2023-03-26T08:38:57.577Z,2.90
2023-03-26T08:42:34.446Z,2.30
2023-03-26T08:46:01.067Z,2.40
2023-03-26T08:49:38.662Z,2.20
2023-03-26T08:53:05.723Z,2.00
2023-03-26T08:56:09.824Z,2.40
2023-03-26T09:00:05.968Z,2.87
2023-03-26T09:03:41.362Z,2.83
2023-03-26T09:07:27.151Z,2.57
2023-03-26T09:11:04.890Z,2.53
2023-03-26T09:14:30.429Z,1.90
2023-03-26T09:18:05.586Z,2.00
2023-03-26T09:21:44.244Z,1.90
2023-03-26T09:25:25.794Z,2.63
2023-03-26T09:28:51.649Z,2.23
2023-03-26T09:32:48.225Z,2.73
2023-03-26T09:36:00.805Z,2.67
2023-03-26T09:38:58.426Z,2.03
2023-03-26T09:42:09.204Z,2.30
2023-03-26T09:45:33.092Z,1.90
2023-03-26T09:49:09.196Z,2.33
2023-03-26T09:52:17.388Z,2.73
2023-03-26T09:55:57.866Z,2.93
2023-03-26T09:59:17.809Z,3.07
2023-03-26T10:02:45.958Z,3.27
2023-03-26T10:06:11.871Z,2.07
2023-03-26T10:09:37.940Z,2.53
2023-03-26T10:12:38.307Z,3.20
2023-03-26T10:15:53.355Z,2.63
2023-03-26T10:19:09.886Z,3.10
2023-03-26T10:22:20.422Z,2.67
2023-03-26T10:25:43.350Z,3.20
2023-03-26T10:29:05.719Z,2.67
2023-03-26T10:32:10.936Z,2.70
2023-03-26T10:35:18.595Z,2.83
2023-03-26T10:38:19.788Z,3.50
2023-03-26T10:41:18.254Z,3.57
2023-03-26T10:44:34.424Z,4.60
2023-03-26T10:47:52.722Z,4.80
2023-03-26T10:50:58.762Z,3.77
2023-03-26T10:53:52.082Z,3.30
2023-03-26T10:56:49.360Z,2.27
2023-03-26T10:59:40.170Z,2.23
2023-03-26T11:02:38.046Z,1.60
2023-03-26T11:05:50.340Z,2.10
2023-03-26T11:08:49.558Z,1.90
2023-03-26T11:11:46.190Z,1.97
2023-03-26T11:14:48.707Z,1.90
2023-03-26T11:17:53.041Z,2.57
2023-03-26T11:20:50.638Z,3.63
2023-03-26T11:23:46.540Z,3.40
2023-03-26T11:26:52.975Z,2.27
2023-03-26T11:29:58.132Z,3.90
2023-03-26T11:32:53.915Z,2.40
2023-03-26T11:35:49.335Z,2.70
2023-03-26T11:38:43.629Z,2.30
2023-03-26T11:41:35.624Z,2.70
2023-03-26T11:44:51.449Z,1.73
2023-03-26T11:47:49.363Z,3.07
2023-03-26T11:50:46.579Z,2.10
2023-03-26T11:53:39.772Z,2.00
2023-03-26T11:56:34.727Z,1.70
2023-03-26T11:59:33.802Z,2.03
2023-03-26T12:02:34.510Z,2.60
2023-03-26T12:05:27.492Z,2.13
2023-03-26T12:08:28.025Z,2.50
2023-03-26T12:11:22.040Z,2.50
2023-03-26T12:14:20.481Z,2.40
2023-03-26T12:17:14.913Z,1.93
2023-03-26T12:20:38.876Z,1.97
2023-03-26T12:23:42.637Z,2.20
2023-03-26T12:26:45.706Z,2.53
2023-03-26T12:29:35.180Z,4.43
2023-03-26T12:32:32.572Z,2.57
2023-03-26T12:35:36.983Z,2.23
2023-03-26T12:38:33.188Z,2.00
2023-03-26T12:43:40.557Z,2.50
2023-03-26T12:44:59.161Z,3.20
2023-03-26T12:48:00.069Z,2.00
2023-03-26T12:51:11.890Z,2.90
2023-03-26T12:54:35.297Z,1.70
2023-03-26T12:57:32.691Z,1.87
2023-03-26T13:00:41.898Z,2.60
2023-03-26T13:03:48.042Z,2.80
2023-03-26T13:07:01.098Z,2.43
2023-03-26T13:10:28.017Z,2.03
2023-03-26T13:13:45.670Z,1.83
2023-03-26T13:16:46.748Z,2.80
2023-03-26T13:19:48.805Z,2.20
2023-03-26T13:22:52.866Z,2.20
2023-03-26T13:25:52.926Z,2.50
2023-03-26T13:28:53.296Z,2.07
2023-03-26T13:31:55.972Z,2.70
2023-03-26T13:35:04.260Z,3.23
2023-03-26T13:38:04.395Z,2.80
2023-03-26T13:41:05.466Z,2.20
2023-03-26T13:44:14.241Z,2.67
2023-03-26T13:47:10.122Z,2.60
2023-03-26T13:50:07.454Z,3.10
2023-03-26T13:53:07.134Z,1.80
2023-03-26T13:56:00.394Z,1.83
2023-03-26T13:58:58.725Z,2.00
2023-03-26T14:01:53.988Z,1.80
2023-03-26T14:04:48.779Z,2.20
2023-03-26T14:07:47.701Z,1.93
2023-03-26T14:10:47.056Z,1.87
2023-03-26T14:13:44.524Z,1.80
2023-03-26T14:16:41.304Z,1.50
2023-03-26T14:20:09.963Z,1.60
2023-03-26T14:23:53.912Z,1.70
2023-03-26T14:27:15.585Z,3.23
2023-03-26T14:30:59.196Z,2.60
2023-03-26T14:34:13.627Z,2.70
2023-03-26T14:37:43.923Z,2.73
2023-03-26T14:40:58.058Z,3.47
2023-03-26T14:44:47.988Z,2.20
2023-03-26T14:47:48.877Z,2.17
2023-03-26T14:51:01.404Z,2.00
2023-03-26T14:53:54.719Z,3.67
2023-03-26T14:57:00.395Z,3.70
2023-03-26T15:00:39.525Z,3.10
2023-03-26T15:04:38.460Z,2.87
2023-03-26T15:08:00.927Z,2.53
2023-03-26T15:11:21.567Z,2.20
2023-03-26T15:14:44.218Z,1.90
2023-03-26T15:18:06.246Z,2.10
2023-03-26T15:21:57.913Z,2.50
2023-03-26T15:26:02.628Z,2.83
2023-03-26T15:29:28.127Z,3.73
2023-03-26T15:33:07.270Z,3.63
2023-03-26T15:36:58.847Z,3.17
2023-03-26T15:40:54.876Z,2.83
2023-03-26T15:44:23.892Z,2.63
2023-03-26T15:47:44.452Z,4.40
2023-03-26T15:50:55.806Z,3.80
2023-03-26T15:53:58.626Z,3.63
2023-03-26T15:57:17.615Z,3.40
2023-03-26T16:00:23.513Z,4.17
2023-03-26T16:03:35.886Z,3.10
2023-03-26T16:06:41.433Z,2.90
2023-03-26T16:10:00.804Z,1.80
2023-03-26T16:13:23.410Z,2.00
2023-03-26T16:16:24.559Z,1.70
2023-03-26T16:19:49.476Z,2.17
2023-03-26T16:22:57.293Z,2.47
2023-03-26T16:26:12.359Z,1.70
2023-03-26T16:29:18.392Z,1.87
2023-03-26T16:32:17.867Z,1.60
2023-03-26T16:35:40.050Z,1.90
2023-03-26T16:38:54.819Z,1.83
2023-03-26T16:42:36.960Z,2.40
2023-03-26T16:45:37.170Z,1.73
2023-03-26T16:48:36.516Z,2.27
2023-03-26T16:51:45.661Z,2.00
2023-03-26T16:54:48.030Z,1.80
2023-03-26T16:57:49.450Z,1.80
2023-03-26T17:01:07.596Z,2.60
2023-03-26T17:04:03.735Z,3.93
2023-03-26T17:07:14.066Z,2.77
2023-03-26T17:10:16.134Z,3.77
2023-03-26T17:13:16.692Z,3.03
2023-03-26T17:16:16.698Z,4.67
2023-03-26T17:19:21.740Z,7.57
2023-03-26T17:22:24.924Z,5.60
2023-03-26T17:25:33.485Z,6.53
2023-03-26T17:28:55.200Z,5.37
2023-03-26T17:31:53.692Z,4.17
2023-03-26T17:35:02.232Z,5.50
2023-03-26T17:37:51.865Z,5.70
2023-03-26T17:41:01.757Z,6.07
2023-03-26T17:43:53.681Z,7.00
2023-03-26T17:46:48.318Z,6.97
2023-03-26T17:49:40.635Z,6.20
2023-03-26T17:52:48.171Z,5.70
2023-03-26T17:55:41.532Z,5.60
2023-03-26T17:58:36.881Z,5.43
2023-03-26T18:01:37.052Z,5.80
2023-03-26T18:04:37.205Z,7.20
2023-03-26T18:08:16.964Z,8.30
2023-03-26T18:11:52.590Z,8.07
2023-03-26T18:15:21.788Z,13.33
2023-03-26T18:18:20.939Z,9.07
2023-03-26T18:21:18.786Z,8.00
2023-03-26T18:24:16.067Z,7.57
2023-03-26T18:27:12.266Z,6.33
2023-03-26T18:30:15.010Z,5.63
2023-03-26T18:33:15.508Z,3.50
2023-03-26T18:36:16.135Z,3.63
2023-03-26T18:39:05.855Z,3.77
2023-03-26T18:41:55.340Z,3.90
2023-03-26T18:44:44.516Z,2.47
2023-03-26T18:47:33.709Z,2.50
2023-03-26T18:50:29.651Z,2.47
2023-03-26T18:53:23.422Z,1.70
2023-03-26T18:56:30.032Z,2.40
2023-03-26T18:59:28.258Z,2.30
2023-03-26T19:02:18.374Z,2.43
2023-03-26T19:05:13.867Z,2.70
2023-03-26T19:08:07.659Z,2.40
2023-03-26T19:10:57.508Z,2.40
2023-03-26T19:14:03.262Z,2.53
2023-03-26T19:16:58.754Z,1.97
2023-03-26T19:19:47.900Z,1.83
2023-03-26T19:22:41.383Z,2.30
2023-03-26T19:25:39.551Z,2.00
2023-03-26T19:28:33.400Z,1.80
2023-03-26T19:31:27.180Z,2.23
2023-03-26T19:34:27.342Z,1.80
2023-03-26T19:37:23.773Z,2.40
2023-03-26T19:40:20.851Z,2.37
2023-03-26T19:43:15.446Z,2.63
2023-03-26T19:46:05.986Z,2.20
2023-03-26T19:48:59.028Z,2.13
2023-03-26T19:51:53.253Z,2.43
2023-03-26T19:55:01.302Z,2.30
2023-03-26T19:57:51.677Z,2.00
2023-03-26T20:00:42.216Z,3.93
2023-03-26T20:03:39.050Z,3.73
2023-03-26T20:06:42.261Z,2.23
2023-03-26T20:09:32.502Z,2.10
2023-03-26T20:12:21.841Z,1.70
2023-03-26T20:15:20.114Z,1.60
2023-03-26T20:18:12.227Z,1.30
2023-03-26T20:21:01.364Z,1.50
2023-03-26T20:23:53.508Z,2.80
2023-03-26T20:26:42.573Z,1.27
2023-03-26T20:29:31.592Z,1.50
2023-03-26T20:32:26.447Z,1.43
2023-03-26T20:35:36.042Z,1.33
2023-03-26T20:38:39.232Z,1.20
2023-03-26T20:41:29.038Z,2.07
2023-03-26T20:44:22.481Z,1.60
2023-03-26T20:47:12.750Z,1.00
2023-03-26T20:50:01.954Z,1.23
2023-03-26T20:52:53.344Z,1.17
2023-03-26T20:55:43.965Z,1.10
2023-03-26T20:58:33.237Z,1.10
2023-03-26T21:01:22.754Z,1.20
2023-03-26T21:04:11.996Z,1.40
2023-03-26T21:07:11.096Z,1.03
2023-03-26T21:10:08.101Z,2.30
2023-03-26T21:13:00.692Z,1.10
2023-03-26T21:15:50.616Z,1.40
2023-03-26T21:18:40.543Z,1.47
2023-03-26T21:21:50.658Z,1.80
2023-03-26T21:25:02.202Z,1.20
2023-03-26T21:28:11.201Z,1.53
2023-03-26T21:31:01.181Z,1.30
2023-03-26T21:33:52.386Z,1.30
2023-03-26T21:36:42.056Z,1.13
2023-03-26T21:39:31.629Z,1.30
2023-03-26T21:42:21.354Z,1.23
2023-03-26T21:45:14.252Z,1.67
2023-03-26T21:48:04.292Z,1.17
2023-03-26T21:50:54.364Z,1.20
2023-03-26T21:53:44.378Z,1.17
2023-03-26T21:56:48.548Z,0.93
2023-03-26T21:59:49.286Z,1.20
2023-03-26T22:02:59.615Z,1.60
2023-03-26T22:05:58.580Z,1.13
2023-03-26T22:08:48.180Z,1.90
2023-03-26T22:11:37.284Z,1.20
2023-03-26T22:14:28.092Z,1.30
2023-03-26T22:17:17.053Z,1.10
2023-03-26T22:20:09.972Z,1.30
2023-03-26T22:22:59.782Z,1.90
2023-03-26T22:25:48.668Z,1.60
2023-03-26T22:28:37.539Z,1.63
2023-03-26T22:31:27.035Z,1.93
2023-03-26T22:34:15.890Z,1.73
2023-03-26T22:37:06.455Z,1.30
2023-03-26T22:39:55.422Z,1.60
2023-03-26T22:42:44.291Z,1.60
2023-03-26T22:45:33.270Z,1.37
2023-03-26T22:48:23.449Z,1.50
2023-03-26T22:51:12.931Z,1.63
2023-03-26T22:54:03.450Z,1.13
2023-03-26T22:56:55.359Z,1.77
2023-03-26T22:59:44.782Z,1.23
2023-03-26T23:02:33.731Z,1.50
2023-03-26T23:05:22.749Z,1.40
2023-03-26T23:08:12.629Z,1.50
2023-03-26T23:11:03.757Z,1.50
2023-03-26T23:13:53.229Z,1.33
2023-03-26T23:16:42.366Z,1.60
2023-03-26T23:19:34.031Z,1.27
2023-03-26T23:22:23.003Z,1.70
2023-03-26T23:25:13.040Z,1.80
2023-03-26T23:28:03.593Z,1.60
2023-03-26T23:30:55.110Z,1.73
2023-03-26T23:33:46.845Z,1.50
2023-03-26T23:36:36.399Z,1.40
2023-03-26T23:39:26.667Z,1.50
2023-03-26T23:42:15.504Z,1.50
2023-03-26T23:45:06.646Z,1.57
2023-03-26T23:47:56.204Z,1.60
2023-03-26T23:50:48.225Z,2.43
2023-03-26T23:53:37.397Z,1.80
2023-03-26T23:56:27.673Z,1.80
2023-03-26T23:59:16.967Z,1.80
